Norfolk — WDG2147 — position and weather

sailwx.info

Track history (hours):
 
Tides and Currents Weather Stations Pressure Air Temp Water Temp Dewpoint Dewpoint Depression Visibility Wind Speed Wind Dir Waves Ship Positions

Norfolk

Owner: Virginia Pilot Boat Corporation, Virginia Beach, VA. More information available from US FCC via Universal Licensing System and Coast Guard Vessel Documentation Center.

Last reported at 2018-Feb-25 14:59 UTC. Time now 2018-Feb-25 15:25 UTC.
Position N 36°54' W 076°05'.

Length 18 m; draft 1.5 m.

Type: Pilot. MMSI: 367512630.

Date/timePositionNaut miles runAvg speedWind from/ knotsBaromVisibWave heightAir tempDewpointWater temp
2018-Feb-25 14:59N 36°54' W 076°05'0 0.0
2018-Feb-25 14:23N 36°54' W 076°05'0 0.1
2018-Feb-25 13:59N 36°54' W 076°05'0 0.3
2018-Feb-25 13:29N 36°54' W 076°06'0 0.2
2018-Feb-25 12:51N 36°54' W 076°05'0 0.0
2018-Feb-25 08:58N 36°54' W 076°05'9 8.5
2018-Feb-25 07:57N 36°55' W 075°55'917.2
2018-Feb-25 07:27N 36°54' W 076°06'0 0.0
2018-Feb-25 04:20N 36°54' W 076°05'1 0.9
2018-Feb-25 03:17N 36°55' W 076°05'1 0.8
2018-Feb-25 02:00N 36°54' W 076°05'0 0.0
2018-Feb-24 22:43N 36°54' W 076°05'0 0.0
2018-Feb-24 22:28N 36°54' W 076°05'0 0.0
2018-Feb-24 22:00N 36°54' W 076°05'0 0.0
2018-Feb-24 21:24N 36°54' W 076°05'0 0.0
2018-Feb-24 20:57N 36°54' W 076°05'1 2.6
2018-Feb-24 20:30N 36°55' W 076°05'1 2.4
2018-Feb-24 20:00N 36°54' W 076°06'0 0.2
2018-Feb-24 19:30N 36°54' W 076°05'0 0.0
2018-Feb-24 19:00N 36°54' W 076°05'0 0.1
2018-Feb-24 18:30N 36°54' W 076°05'0 0.0
2018-Feb-24 17:59N 36°54' W 076°05'813.0
2018-Feb-24 17:25N 36°56' W 075°56'818.7
2018-Feb-24 17:00N 36°54' W 076°05'0 0.0
2018-Feb-24 16:20N 36°54' W 076°05'616.7
2018-Feb-24 15:58N 36°56' W 075°58'511.3
2018-Feb-24 15:29N 36°55' W 076°05'1 1.0
2018-Feb-24 14:25N 36°54' W 076°05'716.3
2018-Feb-24 13:59N 36°55' W 075°57'4 7.8
2018-Feb-24 13:25N 36°56' W 076°02'3 7.8
2018-Feb-24 13:00N 36°54' W 076°05'0 0.0
2018-Feb-24 12:25N 36°54' W 076°05'1 0.3
2018-Feb-24 07:56N 36°56' W 076°05'1 0.1
2018-Feb-23 22:56N 36°54' W 076°05'0 0.0
2018-Feb-23 22:29N 36°54' W 076°05'0 0.0
2018-Feb-23 22:00N 36°54' W 076°05'0 0.0
2018-Feb-23 21:30N 36°54' W 076°05'0 0.0
2018-Feb-23 21:00N 36°54' W 076°05'0 0.0
2018-Feb-23 20:30N 36°54' W 076°05'0 0.0
2018-Feb-23 19:56N 36°54' W 076°05'0 0.3
2018-Feb-23 19:28N 36°54' W 076°06'4 8.3
2018-Feb-23 18:58N 36°57' W 076°01'1 2.4
2018-Feb-23 18:30N 36°57' W 076°03'3 6.2
2018-Feb-23 18:00N 36°54' W 076°05'0 0.0
2018-Feb-23 17:30N 36°54' W 076°05'0 0.0
2018-Feb-23 16:59N 36°54' W 076°05'0 0.0
2018-Feb-23 16:30N 36°54' W 076°05'4 8.5
2018-Feb-23 16:00N 36°57' W 076°01'1 1.6
2018-Feb-23 15:30N 36°56' W 076°01'5 9.2
2018-Feb-23 15:00N 36°55' W 075°55'815.0
2018-Feb-23 14:28N 36°54' W 076°05'0 0.0
2018-Feb-23 13:53N 36°54' W 076°05'0 0.0
2018-Feb-23 13:30N 36°54' W 076°05'0 0.0
2018-Feb-23 12:55N 36°54' W 076°05'0 0.0
2018-Feb-23 01:43N 36°54' W 076°05'3 0.6
2018-Feb-22 21:11N 36°57' W 076°05'315.3
2018-Feb-22 21:00N 36°54' W 076°05'0 0.0
2018-Feb-22 20:29N 36°54' W 076°05'0 0.0
2018-Feb-22 20:00N 36°54' W 076°05'0 0.0
2018-Feb-22 19:30N 36°54' W 076°05'0 0.0
2018-Feb-22 19:00N 36°54' W 076°05'0 0.0
2018-Feb-22 18:30N 36°54' W 076°05'0 0.0
2018-Feb-22 18:00N 36°54' W 076°05'0 0.0
2018-Feb-22 17:30N 36°54' W 076°05'0 0.0
2018-Feb-22 17:00N 36°54' W 076°05'4 7.7
2018-Feb-22 16:30N 36°57' W 076°02'0 0.8
2018-Feb-22 16:00N 36°57' W 076°02'5 9.7
2018-Feb-22 15:28N 36°56' W 075°56'816.2
2018-Feb-22 15:00N 36°55' W 076°06'0 0.3
2018-Feb-22 14:29N 36°54' W 076°05'0 0.0
2018-Feb-22 13:59N 36°54' W 076°05'3 6.1
2018-Feb-22 13:30N 36°57' W 076°03'3 5.5
2018-Feb-22 12:59N 36°54' W 076°05'0 0.0
2018-Feb-22 12:28N 36°54' W 076°05'0 0.0
2018-Feb-22 11:55N 36°54' W 076°05'0 0.1
2018-Feb-22 10:46N 36°54' W 076°06'0 0.1
2018-Feb-22 09:31N 36°54' W 076°05'0 4.9
2018-Feb-22 09:30N 36°54' W 076°05'12 8.5
2018-Feb-22 08:08N 37°06' W 076°05'325.2
2018-Feb-22 08:00N 37°03' W 076°04'8 0.8
2018-Feb-21 21:53N 36°54' W 076°05'4 9.6
2018-Feb-21 21:30N 36°58' W 076°03'4 7.3
2018-Feb-21 21:00N 36°54' W 076°05'4 6.7
2018-Feb-21 20:23N 36°57' W 076°01'511.4
2018-Feb-21 19:57N 36°55' W 075°55'817.0
2018-Feb-21 19:30N 36°55' W 076°05'510.7
2018-Feb-21 19:00N 36°56' W 075°58'5 9.3
2018-Feb-21 18:30N 36°56' W 076°04'2 1.4
2018-Feb-21 17:19N 36°54' W 076°05'617.6
2018-Feb-21 17:00N 36°56' W 075°59'4 7.2
2018-Feb-21 16:30N 36°56' W 076°03'2 3.6
2018-Feb-21 15:55N 36°54' W 076°05'9 4.7
2018-Feb-21 14:05N 36°55' W 075°55'0 1.3
2018-Feb-21 13:57N 36°55' W 075°55'818.8
2018-Feb-21 13:30N 36°54' W 076°05'613.2
2018-Feb-21 13:00N 36°56' W 075°57'611.8
2018-Feb-21 12:30N 36°55' W 076°05'1 0.3
2018-Feb-21 08:39N 36°54' W 076°05'2 0.6
2018-Feb-21 05:10N 36°57' W 076°05'2 1.1
2018-Feb-21 03:08N 36°54' W 076°06'810.0
2018-Feb-21 02:21N 36°56' W 075°56'818.1
2018-Feb-21 01:55N 36°54' W 076°06'0 0.0
2018-Feb-20 23:16N 36°54' W 076°06'1 0.5
2018-Feb-20 21:06N 36°55' W 076°05'110.6
2018-Feb-20 21:00N 36°54' W 076°05'0 0.0
2018-Feb-20 20:26N 36°54' W 076°05'1 1.8
2018-Feb-20 19:59N 36°55' W 076°05'612.3
2018-Feb-20 19:29N 36°56' W 075°58'713.6
2018-Feb-20 19:00N 36°55' W 076°06'3 4.3
2018-Feb-20 18:14N 36°56' W 076°02'3 4.0
2018-Feb-20 17:24N 36°54' W 076°05'718.0
2018-Feb-20 16:59N 36°55' W 075°56'5 9.9
2018-Feb-20 16:30N 36°56' W 076°02'3 5.8
2018-Feb-20 15:56N 36°54' W 076°05'915.5
2018-Feb-20 15:22N 36°57' W 075°55'719.6
2018-Feb-20 15:00N 36°56' W 076°04'2 3.4
2018-Feb-20 14:30N 36°54' W 076°05'0 0.0
2018-Feb-20 14:00N 36°54' W 076°05'0 0.0
2018-Feb-20 13:29N 36°54' W 076°05'0 0.0
2018-Feb-20 13:00N 36°54' W 076°05'0 0.0
2018-Feb-20 12:30N 36°54' W 076°05'0 0.0
2018-Feb-20 11:59N 36°54' W 076°05'0 0.0
2018-Feb-20 09:03N 36°54' W 076°06'0 1.1
2018-Feb-20 08:56N 36°54' W 076°05'817.7
2018-Feb-20 08:29N 36°56' W 075°56'8 6.5
2018-Feb-20 07:17N 36°54' W 076°05'0 0.0
2018-Feb-20 05:08N 36°54' W 076°05'819.1
2018-Feb-20 04:43N 36°56' W 075°56'8 1.3
2018-Feb-19 22:35N 36°54' W 076°05'0 0.0
2018-Feb-19 22:22N 36°54' W 076°05'0 0.0
2018-Feb-19 22:00N 36°54' W 076°05'0 0.0
2018-Feb-19 21:24N 36°54' W 076°05'0 0.0
2018-Feb-19 21:00N 36°54' W 076°05'0 0.0
2018-Feb-19 20:30N 36°54' W 076°05'0 0.0
2018-Feb-19 20:00N 36°54' W 076°05'0 0.0
2018-Feb-19 19:30N 36°54' W 076°05'5 1.4
2018-Feb-19 16:22N 36°59' W 076°05'512.3
2018-Feb-19 16:00N 36°54' W 076°05'0 0.0
2018-Feb-19 15:30N 36°54' W 076°05'0 0.0
2018-Feb-19 14:58N 36°54' W 076°05'0 0.0
2018-Feb-19 14:30N 36°54' W 076°05'611.7
2018-Feb-19 13:59N 36°55' W 075°58'511.7
2018-Feb-19 13:30N 36°56' W 076°05'1 2.5
2018-Feb-19 12:59N 36°54' W 076°05'0 0.0
2018-Feb-19 12:28N 36°54' W 076°05'0 0.1
2018-Feb-19 11:13N 36°54' W 076°06'1 1.0
2018-Feb-19 10:10N 36°55' W 076°05'1 1.0
2018-Feb-19 09:12N 36°54' W 076°05'0 0.0
2018-Feb-19 01:27N 36°54' W 076°05'1614.9
2018-Feb-19 00:22N 37°11' W 076°06'1023.5
2018-Feb-18 23:57N 37°01' W 076°04'6 6.1
2018-Feb-18 22:54N 36°54' W 076°05'0 0.0
2018-Feb-18 22:30N 36°54' W 076°05'0 0.0
2018-Feb-18 21:59N 36°54' W 076°05'0 0.0
2018-Feb-18 21:30N 36°54' W 076°05'711.2
2018-Feb-18 20:51N 36°55' W 075°56'513.8
2018-Feb-18 20:30N 36°56' W 076°02'1 1.4
2018-Feb-18 20:00N 36°57' W 076°01'4 7.4
2018-Feb-18 19:28N 36°57' W 075°56'816.4
2018-Feb-18 19:00N 36°54' W 076°05'0 0.0
2018-Feb-18 18:30N 36°54' W 076°05'0 0.0
2018-Feb-18 17:59N 36°54' W 076°05'0 0.0
2018-Feb-18 17:30N 36°54' W 076°05'0 0.0
2018-Feb-18 17:00N 36°54' W 076°05'0 0.0
2018-Feb-18 16:28N 36°54' W 076°05'0 0.0
2018-Feb-18 16:00N 36°54' W 076°05'0 0.0
2018-Feb-18 15:29N 36°54' W 076°05'0 0.0
2018-Feb-18 15:00N 36°54' W 076°05'0 0.0
2018-Feb-18 14:30N 36°54' W 076°05'0 0.0
2018-Feb-18 13:54N 36°54' W 076°05'4 9.8
2018-Feb-18 13:30N 36°57' W 076°02'510.4
2018-Feb-18 12:59N 36°55' W 075°55'817.0
2018-Feb-18 12:30N 36°54' W 076°05'0 0.1
2018-Feb-18 12:00N 36°54' W 076°05'0 0.0
2018-Feb-18 07:44N 36°54' W 076°05'817.5
2018-Feb-18 07:17N 36°56' W 075°56'8 2.5
2018-Feb-18 04:05N 36°54' W 076°05'2 2.3
2018-Feb-18 03:21N 36°56' W 076°04'3 0.4
2018-Feb-17 21:06N 36°58' W 076°05'224.6
2018-Feb-17 21:00N 36°56' W 076°05'2 3.0
2018-Feb-17 20:30N 36°54' W 076°05'710.9
2018-Feb-17 19:51N 36°57' W 075°57'3 7.8
2018-Feb-17 19:28N 36°56' W 076°01'4 8.7
2018-Feb-17 19:00N 36°54' W 076°05'0 0.0
2018-Feb-17 18:30N 36°54' W 076°05'0 0.0
2018-Feb-17 18:00N 36°54' W 076°05'0 0.0
2018-Feb-17 17:30N 36°54' W 076°05'0 0.0
2018-Feb-17 16:58N 36°54' W 076°05'0 0.0
2018-Feb-17 16:30N 36°54' W 076°05'0 0.0
2018-Feb-17 16:00N 36°54' W 076°05'0 0.0
2018-Feb-17 15:29N 36°54' W 076°05'0 0.0
2018-Feb-17 15:00N 36°54' W 076°05'0 0.0
2018-Feb-17 14:30N 36°54' W 076°05'0 0.0
2018-Feb-17 14:00N 36°54' W 076°05'0 0.0
2018-Feb-17 13:30N 36°54' W 076°05'0 0.0
2018-Feb-17 13:00N 36°54' W 076°05'0 0.0
2018-Feb-17 12:29N 36°54' W 076°05'0 0.0
2018-Feb-17 12:00N 36°54' W 076°05'0 0.0
2018-Feb-17 08:03N 36°54' W 076°06'0 0.3
2018-Feb-17 07:37N 36°54' W 076°05'0 0.0
2018-Feb-17 05:24N 36°54' W 076°05'0 0.0
2018-Feb-16 22:39N 36°54' W 076°05'0 0.1
2018-Feb-16 22:27N 36°54' W 076°05'0 0.0
2018-Feb-16 21:59N 36°54' W 076°05'0 0.0
2018-Feb-16 21:30N 36°54' W 076°05'0 0.0
2018-Feb-16 21:00N 36°54' W 076°05'0 0.2
2018-Feb-16 20:30N 36°54' W 076°06'915.2
2018-Feb-16 19:56N 36°55' W 075°55'819.6
2018-Feb-16 19:30N 36°55' W 076°05'1 1.3
2018-Feb-16 19:00N 36°54' W 076°05'3 6.2
2018-Feb-16 18:29N 36°56' W 076°02'3 5.8
2018-Feb-16 17:59N 36°56' W 075°58'612.0
2018-Feb-16 17:30N 36°54' W 076°05'0 0.1
2018-Feb-16 16:54N 36°54' W 076°05'5 9.7
2018-Feb-16 16:25N 36°58' W 076°01'6 2.6
2018-Feb-16 14:06N 36°55' W 075°54'619.1
2018-Feb-16 13:47N 36°56' W 076°02'311.4
2018-Feb-16 13:28N 36°54' W 076°05'0 0.0
2018-Feb-16 12:55N 36°54' W 076°05'0 0.0
2018-Feb-16 12:27N 36°54' W 076°05'0 0.0
2018-Feb-16 12:00N 36°54' W 076°05'2 1.4
2018-Feb-16 10:43N 36°56' W 076°04'2 1.0
2018-Feb-16 08:55N 36°54' W 076°05'0 0.0
2018-Feb-15 22:42N 36°54' W 076°05'0 0.0
2018-Feb-15 22:26N 36°54' W 076°05'0 0.0
2018-Feb-15 19:22N 36°54' W 076°05'9 7.2
2018-Feb-15 18:05N 37°04' W 076°05'624.0
2018-Feb-15 17:51N 36°58' W 076°05'3 8.7
2018-Feb-15 17:27N 36°54' W 076°05'0 0.1
2018-Feb-15 16:53N 36°54' W 076°05'  
Track history (hours):
 
Tides and Currents Weather Stations Pressure Air Temp Water Temp Dewpoint Dewpoint Depression Visibility Wind Speed Wind Dir Waves Ship Positions

Norfolk

Owner: Virginia Pilot Boat Corporation, Virginia Beach, VA. More information available from US FCC via Universal Licensing System and Coast Guard Vessel Documentation Center.

Last reported at 2018-Feb-25 14:59 UTC. Time now 2018-Feb-25 15:25 UTC.
Position N 36°54' W 076°05'.

Length 18 m; draft 1.5 m.

Type: Pilot. MMSI: 367512630.

Date/timePositionNaut miles runAvg speedWind from/ knotsBaromVisibWave heightAir tempDewpointWater temp
2018-Feb-25 14:59N 36°54' W 076°05'0 0.0
2018-Feb-25 14:23N 36°54' W 076°05'0 0.1
2018-Feb-25 13:59N 36°54' W 076°05'0 0.3
2018-Feb-25 13:29N 36°54' W 076°06'0 0.2
2018-Feb-25 12:51N 36°54' W 076°05'0 0.0
2018-Feb-25 08:58N 36°54' W 076°05'9 8.5
2018-Feb-25 07:57N 36°55' W 075°55'917.2
2018-Feb-25 07:27N 36°54' W 076°06'0 0.0
2018-Feb-25 04:20N 36°54' W 076°05'1 0.9
2018-Feb-25 03:17N 36°55' W 076°05'1 0.8
2018-Feb-25 02:00N 36°54' W 076°05'0 0.0
2018-Feb-24 22:43N 36°54' W 076°05'0 0.0
2018-Feb-24 22:28N 36°54' W 076°05'0 0.0
2018-Feb-24 22:00N 36°54' W 076°05'0 0.0
2018-Feb-24 21:24N 36°54' W 076°05'0 0.0
2018-Feb-24 20:57N 36°54' W 076°05'1 2.6
2018-Feb-24 20:30N 36°55' W 076°05'1 2.4
2018-Feb-24 20:00N 36°54' W 076°06'0 0.2
2018-Feb-24 19:30N 36°54' W 076°05'0 0.0
2018-Feb-24 19:00N 36°54' W 076°05'0 0.1
2018-Feb-24 18:30N 36°54' W 076°05'0 0.0
2018-Feb-24 17:59N 36°54' W 076°05'813.0
2018-Feb-24 17:25N 36°56' W 075°56'818.7
2018-Feb-24 17:00N 36°54' W 076°05'0 0.0
2018-Feb-24 16:20N 36°54' W 076°05'616.7
2018-Feb-24 15:58N 36°56' W 075°58'511.3
2018-Feb-24 15:29N 36°55' W 076°05'1 1.0
2018-Feb-24 14:25N 36°54' W 076°05'716.3
2018-Feb-24 13:59N 36°55' W 075°57'4 7.8
2018-Feb-24 13:25N 36°56' W 076°02'3 7.8
2018-Feb-24 13:00N 36°54' W 076°05'0 0.0
2018-Feb-24 12:25N 36°54' W 076°05'1 0.3
2018-Feb-24 07:56N 36°56' W 076°05'1 0.1
2018-Feb-23 22:56N 36°54' W 076°05'0 0.0
2018-Feb-23 22:29N 36°54' W 076°05'0 0.0
2018-Feb-23 22:00N 36°54' W 076°05'0 0.0
2018-Feb-23 21:30N 36°54' W 076°05'0 0.0
2018-Feb-23 21:00N 36°54' W 076°05'0 0.0
2018-Feb-23 20:30N 36°54' W 076°05'0 0.0
2018-Feb-23 19:56N 36°54' W 076°05'0 0.3
2018-Feb-23 19:28N 36°54' W 076°06'4 8.3
2018-Feb-23 18:58N 36°57' W 076°01'1 2.4
2018-Feb-23 18:30N 36°57' W 076°03'3 6.2
2018-Feb-23 18:00N 36°54' W 076°05'0 0.0
2018-Feb-23 17:30N 36°54' W 076°05'0 0.0
2018-Feb-23 16:59N 36°54' W 076°05'0 0.0
2018-Feb-23 16:30N 36°54' W 076°05'4 8.5
2018-Feb-23 16:00N 36°57' W 076°01'1 1.6
2018-Feb-23 15:30N 36°56' W 076°01'5 9.2
2018-Feb-23 15:00N 36°55' W 075°55'815.0
2018-Feb-23 14:28N 36°54' W 076°05'0 0.0
2018-Feb-23 13:53N 36°54' W 076°05'0 0.0
2018-Feb-23 13:30N 36°54' W 076°05'0 0.0
2018-Feb-23 12:55N 36°54' W 076°05'0 0.0
2018-Feb-23 01:43N 36°54' W 076°05'3 0.6
2018-Feb-22 21:11N 36°57' W 076°05'315.3
2018-Feb-22 21:00N 36°54' W 076°05'0 0.0
2018-Feb-22 20:29N 36°54' W 076°05'0 0.0
2018-Feb-22 20:00N 36°54' W 076°05'0 0.0
2018-Feb-22 19:30N 36°54' W 076°05'0 0.0
2018-Feb-22 19:00N 36°54' W 076°05'0 0.0
2018-Feb-22 18:30N 36°54' W 076°05'0 0.0
2018-Feb-22 18:00N 36°54' W 076°05'0 0.0
2018-Feb-22 17:30N 36°54' W 076°05'0 0.0
2018-Feb-22 17:00N 36°54' W 076°05'4 7.7
2018-Feb-22 16:30N 36°57' W 076°02'0 0.8
2018-Feb-22 16:00N 36°57' W 076°02'5 9.7
2018-Feb-22 15:28N 36°56' W 075°56'816.2
2018-Feb-22 15:00N 36°55' W 076°06'0 0.3
2018-Feb-22 14:29N 36°54' W 076°05'0 0.0
2018-Feb-22 13:59N 36°54' W 076°05'3 6.1
2018-Feb-22 13:30N 36°57' W 076°03'3 5.5
2018-Feb-22 12:59N 36°54' W 076°05'0 0.0
2018-Feb-22 12:28N 36°54' W 076°05'0 0.0
2018-Feb-22 11:55N 36°54' W 076°05'0 0.1
2018-Feb-22 10:46N 36°54' W 076°06'0 0.1
2018-Feb-22 09:31N 36°54' W 076°05'0 4.9
2018-Feb-22 09:30N 36°54' W 076°05'12 8.5
2018-Feb-22 08:08N 37°06' W 076°05'325.2
2018-Feb-22 08:00N 37°03' W 076°04'8 0.8
2018-Feb-21 21:53N 36°54' W 076°05'4 9.6
2018-Feb-21 21:30N 36°58' W 076°03'4 7.3
2018-Feb-21 21:00N 36°54' W 076°05'4 6.7
2018-Feb-21 20:23N 36°57' W 076°01'511.4
2018-Feb-21 19:57N 36°55' W 075°55'817.0
2018-Feb-21 19:30N 36°55' W 076°05'510.7
2018-Feb-21 19:00N 36°56' W 075°58'5 9.3
2018-Feb-21 18:30N 36°56' W 076°04'2 1.4
2018-Feb-21 17:19N 36°54' W 076°05'617.6
2018-Feb-21 17:00N 36°56' W 075°59'4 7.2
2018-Feb-21 16:30N 36°56' W 076°03'2 3.6
2018-Feb-21 15:55N 36°54' W 076°05'9 4.7
2018-Feb-21 14:05N 36°55' W 075°55'0 1.3
2018-Feb-21 13:57N 36°55' W 075°55'818.8
2018-Feb-21 13:30N 36°54' W 076°05'613.2
2018-Feb-21 13:00N 36°56' W 075°57'611.8
2018-Feb-21 12:30N 36°55' W 076°05'1 0.3
2018-Feb-21 08:39N 36°54' W 076°05'2 0.6
2018-Feb-21 05:10N 36°57' W 076°05'2 1.1
2018-Feb-21 03:08N 36°54' W 076°06'810.0
2018-Feb-21 02:21N 36°56' W 075°56'818.1
2018-Feb-21 01:55N 36°54' W 076°06'0 0.0
2018-Feb-20 23:16N 36°54' W 076°06'1 0.5
2018-Feb-20 21:06N 36°55' W 076°05'110.6
2018-Feb-20 21:00N 36°54' W 076°05'0 0.0
2018-Feb-20 20:26N 36°54' W 076°05'1 1.8
2018-Feb-20 19:59N 36°55' W 076°05'612.3
2018-Feb-20 19:29N 36°56' W 075°58'713.6
2018-Feb-20 19:00N 36°55' W 076°06'3 4.3
2018-Feb-20 18:14N 36°56' W 076°02'3 4.0
2018-Feb-20 17:24N 36°54' W 076°05'718.0
2018-Feb-20 16:59N 36°55' W 075°56'5 9.9
2018-Feb-20 16:30N 36°56' W 076°02'3 5.8
2018-Feb-20 15:56N 36°54' W 076°05'915.5
2018-Feb-20 15:22N 36°57' W 075°55'719.6
2018-Feb-20 15:00N 36°56' W 076°04'2 3.4
2018-Feb-20 14:30N 36°54' W 076°05'0 0.0
2018-Feb-20 14:00N 36°54' W 076°05'0 0.0
2018-Feb-20 13:29N 36°54' W 076°05'0 0.0
2018-Feb-20 13:00N 36°54' W 076°05'0 0.0
2018-Feb-20 12:30N 36°54' W 076°05'0 0.0
2018-Feb-20 11:59N 36°54' W 076°05'0 0.0
2018-Feb-20 09:03N 36°54' W 076°06'0 1.1
2018-Feb-20 08:56N 36°54' W 076°05'817.7
2018-Feb-20 08:29N 36°56' W 075°56'8 6.5
2018-Feb-20 07:17N 36°54' W 076°05'0 0.0
2018-Feb-20 05:08N 36°54' W 076°05'819.1
2018-Feb-20 04:43N 36°56' W 075°56'8 1.3
2018-Feb-19 22:35N 36°54' W 076°05'0 0.0
2018-Feb-19 22:22N 36°54' W 076°05'0 0.0
2018-Feb-19 22:00N 36°54' W 076°05'0 0.0
2018-Feb-19 21:24N 36°54' W 076°05'0 0.0
2018-Feb-19 21:00N 36°54' W 076°05'0 0.0
2018-Feb-19 20:30N 36°54' W 076°05'0 0.0
2018-Feb-19 20:00N 36°54' W 076°05'0 0.0
2018-Feb-19 19:30N 36°54' W 076°05'5 1.4
2018-Feb-19 16:22N 36°59' W 076°05'512.3
2018-Feb-19 16:00N 36°54' W 076°05'0 0.0
2018-Feb-19 15:30N 36°54' W 076°05'0 0.0
2018-Feb-19 14:58N 36°54' W 076°05'0 0.0
2018-Feb-19 14:30N 36°54' W 076°05'611.7
2018-Feb-19 13:59N 36°55' W 075°58'511.7
2018-Feb-19 13:30N 36°56' W 076°05'1 2.5
2018-Feb-19 12:59N 36°54' W 076°05'0 0.0
2018-Feb-19 12:28N 36°54' W 076°05'0 0.1
2018-Feb-19 11:13N 36°54' W 076°06'1 1.0
2018-Feb-19 10:10N 36°55' W 076°05'1 1.0
2018-Feb-19 09:12N 36°54' W 076°05'0 0.0
2018-Feb-19 01:27N 36°54' W 076°05'1614.9
2018-Feb-19 00:22N 37°11' W 076°06'1023.5
2018-Feb-18 23:57N 37°01' W 076°04'6 6.1
2018-Feb-18 22:54N 36°54' W 076°05'0 0.0
2018-Feb-18 22:30N 36°54' W 076°05'0 0.0
2018-Feb-18 21:59N 36°54' W 076°05'0 0.0
2018-Feb-18 21:30N 36°54' W 076°05'711.2
2018-Feb-18 20:51N 36°55' W 075°56'513.8
2018-Feb-18 20:30N 36°56' W 076°02'1 1.4
2018-Feb-18 20:00N 36°57' W 076°01'4 7.4
2018-Feb-18 19:28N 36°57' W 075°56'816.4
2018-Feb-18 19:00N 36°54' W 076°05'0 0.0
2018-Feb-18 18:30N 36°54' W 076°05'0 0.0
2018-Feb-18 17:59N 36°54' W 076°05'0 0.0
2018-Feb-18 17:30N 36°54' W 076°05'0 0.0
2018-Feb-18 17:00N 36°54' W 076°05'0 0.0
2018-Feb-18 16:28N 36°54' W 076°05'0 0.0
2018-Feb-18 16:00N 36°54' W 076°05'0 0.0
2018-Feb-18 15:29N 36°54' W 076°05'0 0.0
2018-Feb-18 15:00N 36°54' W 076°05'0 0.0
2018-Feb-18 14:30N 36°54' W 076°05'0 0.0
2018-Feb-18 13:54N 36°54' W 076°05'4 9.8
2018-Feb-18 13:30N 36°57' W 076°02'510.4
2018-Feb-18 12:59N 36°55' W 075°55'817.0
2018-Feb-18 12:30N 36°54' W 076°05'0 0.1
2018-Feb-18 12:00N 36°54' W 076°05'0 0.0
2018-Feb-18 07:44N 36°54' W 076°05'817.5
2018-Feb-18 07:17N 36°56' W 075°56'8 2.5
2018-Feb-18 04:05N 36°54' W 076°05'2 2.3
2018-Feb-18 03:21N 36°56' W 076°04'3 0.4
2018-Feb-17 21:06N 36°58' W 076°05'224.6
2018-Feb-17 21:00N 36°56' W 076°05'2 3.0
2018-Feb-17 20:30N 36°54' W 076°05'710.9
2018-Feb-17 19:51N 36°57' W 075°57'3 7.8
2018-Feb-17 19:28N 36°56' W 076°01'4 8.7
2018-Feb-17 19:00N 36°54' W 076°05'0 0.0
2018-Feb-17 18:30N 36°54' W 076°05'0 0.0
2018-Feb-17 18:00N 36°54' W 076°05'0 0.0
2018-Feb-17 17:30N 36°54' W 076°05'0 0.0
2018-Feb-17 16:58N 36°54' W 076°05'0 0.0
2018-Feb-17 16:30N 36°54' W 076°05'0 0.0
2018-Feb-17 16:00N 36°54' W 076°05'0 0.0
2018-Feb-17 15:29N 36°54' W 076°05'0 0.0
2018-Feb-17 15:00N 36°54' W 076°05'0 0.0
2018-Feb-17 14:30N 36°54' W 076°05'0 0.0
2018-Feb-17 14:00N 36°54' W 076°05'0 0.0
2018-Feb-17 13:30N 36°54' W 076°05'0 0.0
2018-Feb-17 13:00N 36°54' W 076°05'0 0.0
2018-Feb-17 12:29N 36°54' W 076°05'0 0.0
2018-Feb-17 12:00N 36°54' W 076°05'0 0.0
2018-Feb-17 08:03N 36°54' W 076°06'0 0.3
2018-Feb-17 07:37N 36°54' W 076°05'0 0.0
2018-Feb-17 05:24N 36°54' W 076°05'0 0.0
2018-Feb-16 22:39N 36°54' W 076°05'0 0.1
2018-Feb-16 22:27N 36°54' W 076°05'0 0.0
2018-Feb-16 21:59N 36°54' W 076°05'0 0.0
2018-Feb-16 21:30N 36°54' W 076°05'0 0.0
2018-Feb-16 21:00N 36°54' W 076°05'0 0.2
2018-Feb-16 20:30N 36°54' W 076°06'915.2
2018-Feb-16 19:56N 36°55' W 075°55'819.6
2018-Feb-16 19:30N 36°55' W 076°05'1 1.3
2018-Feb-16 19:00N 36°54' W 076°05'3 6.2
2018-Feb-16 18:29N 36°56' W 076°02'3 5.8
2018-Feb-16 17:59N 36°56' W 075°58'612.0
2018-Feb-16 17:30N 36°54' W 076°05'0 0.1
2018-Feb-16 16:54N 36°54' W 076°05'5 9.7
2018-Feb-16 16:25N 36°58' W 076°01'6 2.6
2018-Feb-16 14:06N 36°55' W 075°54'619.1
2018-Feb-16 13:47N 36°56' W 076°02'311.4
2018-Feb-16 13:28N 36°54' W 076°05'0 0.0
2018-Feb-16 12:55N 36°54' W 076°05'0 0.0
2018-Feb-16 12:27N 36°54' W 076°05'0 0.0
2018-Feb-16 12:00N 36°54' W 076°05'2 1.4
2018-Feb-16 10:43N 36°56' W 076°04'2 1.0
2018-Feb-16 08:55N 36°54' W 076°05'0 0.0
2018-Feb-15 22:42N 36°54' W 076°05'0 0.0
2018-Feb-15 22:26N 36°54' W 076°05'0 0.0
2018-Feb-15 19:22N 36°54' W 076°05'9 7.2
2018-Feb-15 18:05N 37°04' W 076°05'624.0
2018-Feb-15 17:51N 36°58' W 076°05'3 8.7
2018-Feb-15 17:27N 36°54' W 076°05'0 0.1
2018-Feb-15 16:53N 36°54' W 076°05'  

Dump ship's entire track history